createdAt,value
2022-12-08T00:01:23.005Z,11.68
2022-12-08T00:03:51.513Z,11.90
2022-12-08T00:06:46.336Z,13.53
2022-12-08T00:09:23.419Z,14.70
2022-12-08T00:11:57.038Z,14.73
2022-12-08T00:14:26.705Z,12.98
2022-12-08T00:16:54.798Z,11.57
2022-12-08T00:19:23.324Z,13.70
2022-12-08T00:21:53.131Z,14.25
2022-12-08T00:24:21.586Z,12.70
2022-12-08T00:26:49.637Z,12.52
2022-12-08T00:29:17.890Z,15.20
2022-12-08T00:31:45.859Z,15.38
2022-12-08T00:34:13.864Z,14.80
2022-12-08T00:36:41.547Z,14.38
2022-12-08T00:39:10.705Z,14.13
2022-12-08T00:41:56.152Z,13.65
2022-12-08T00:44:23.941Z,14.95
2022-12-08T00:46:51.720Z,14.03
2022-12-08T00:49:19.981Z,14.73
2022-12-08T00:51:47.842Z,15.63
2022-12-08T00:54:17.397Z,15.00
2022-12-08T00:56:45.234Z,14.55
2022-12-08T00:59:13.204Z,14.95
2022-12-08T01:01:40.917Z,15.68
2022-12-08T01:04:11.018Z,14.50
2022-12-08T01:06:39.595Z,15.10
2022-12-08T01:09:08.772Z,14.25
2022-12-08T01:11:38.109Z,15.80
2022-12-08T01:14:05.800Z,15.27
2022-12-08T01:16:35.103Z,15.45
2022-12-08T01:19:03.042Z,15.20
2022-12-08T01:21:30.796Z,15.38
2022-12-08T01:24:00.596Z,16.38
2022-12-08T01:26:28.343Z,16.92
2022-12-08T01:28:57.532Z,16.20
2022-12-08T01:31:25.258Z,16.98
2022-12-08T01:33:53.376Z,16.52
2022-12-08T01:36:23.616Z,16.83
2022-12-08T01:38:52.080Z,17.53
2022-12-08T01:41:21.853Z,15.50
2022-12-08T01:44:00.390Z,15.40
2022-12-08T01:46:29.908Z,16.30
2022-12-08T01:49:03.079Z,17.45
2022-12-08T01:51:32.440Z,16.70
2022-12-08T01:54:00.184Z,15.98
2022-12-08T01:56:30.806Z,17.55
2022-12-08T01:59:00.719Z,17.65
2022-12-08T02:01:28.465Z,17.27
2022-12-08T02:04:00.351Z,18.80
2022-12-08T02:06:28.960Z,17.17
2022-12-08T02:08:57.246Z,17.00
2022-12-08T02:11:25.052Z,16.67
2022-12-08T02:13:54.185Z,17.13
2022-12-08T02:16:33.164Z,18.00
2022-12-08T02:19:33.262Z,19.02
2022-12-08T02:22:02.468Z,20.60
2022-12-08T02:24:37.512Z,19.73
2022-12-08T02:27:27.761Z,20.20
2022-12-08T02:30:18.400Z,18.90
2022-12-08T02:33:27.572Z,19.50
2022-12-08T02:35:59.647Z,19.40
2022-12-08T02:38:36.817Z,18.70
2022-12-08T02:41:10.326Z,19.63
2022-12-08T02:43:42.673Z,19.55
2022-12-08T02:46:12.903Z,19.37
2022-12-08T02:48:41.076Z,19.88
2022-12-08T02:51:10.291Z,18.70
2022-12-08T02:53:38.239Z,19.17
2022-12-08T02:56:15.988Z,20.27
2022-12-08T02:58:55.672Z,20.17
2022-12-08T03:01:43.466Z,17.80
2022-12-08T03:04:17.156Z,18.23
2022-12-08T03:06:52.478Z,18.20
2022-12-08T03:09:24.036Z,17.33
2022-12-08T03:11:54.900Z,17.17
2022-12-08T03:14:22.760Z,15.30
2022-12-08T03:16:53.152Z,16.42
2022-12-08T03:19:25.708Z,16.37
2022-12-08T03:22:00.456Z,16.80
2022-12-08T03:24:28.293Z,15.40
2022-12-08T03:26:58.889Z,15.30
2022-12-08T03:29:26.880Z,16.33
2022-12-08T03:31:57.296Z,15.55
2022-12-08T03:34:26.850Z,16.33
2022-12-08T03:36:56.103Z,14.70
2022-12-08T03:39:23.809Z,15.23
2022-12-08T03:41:51.605Z,15.00
2022-12-08T03:44:19.339Z,15.13
2022-12-08T03:46:47.069Z,15.97
2022-12-08T03:49:14.711Z,15.13
2022-12-08T03:51:42.417Z,15.02
2022-12-08T03:54:11.517Z,15.25
2022-12-08T03:56:40.384Z,15.50
2022-12-08T03:59:08.571Z,16.17
2022-12-08T04:01:36.359Z,15.17
2022-12-08T04:04:04.226Z,15.40
2022-12-08T04:06:31.912Z,14.55
2022-12-08T04:08:59.803Z,14.88
2022-12-08T04:11:28.879Z,15.23
2022-12-08T04:13:56.607Z,14.43
2022-12-08T04:16:26.590Z,13.93
2022-12-08T04:18:54.918Z,13.75
2022-12-08T04:21:22.747Z,13.10
2022-12-08T04:23:50.497Z,13.20
2022-12-08T04:26:18.574Z,13.07
2022-12-08T04:28:47.806Z,13.18
2022-12-08T04:31:15.663Z,12.82
2022-12-08T04:33:43.384Z,12.93
2022-12-08T04:36:11.184Z,12.95
2022-12-08T04:38:38.979Z,12.00
2022-12-08T04:41:06.830Z,12.55
2022-12-08T04:43:34.636Z,12.60
2022-12-08T04:46:06.567Z,13.18
2022-12-08T04:48:34.253Z,12.15
2022-12-08T04:51:02.044Z,13.02
2022-12-08T04:53:29.727Z,12.40
2022-12-08T04:55:57.515Z,12.20
2022-12-08T04:58:25.261Z,12.95
2022-12-08T05:00:53.238Z,12.50
2022-12-08T05:03:28.277Z,12.95
2022-12-08T05:05:56.149Z,12.77
2022-12-08T05:08:23.915Z,14.93
2022-12-08T05:10:51.707Z,14.52
2022-12-08T05:13:19.457Z,14.27
2022-12-08T05:15:47.167Z,13.57
2022-12-08T05:18:15.657Z,13.65
2022-12-08T05:20:44.759Z,14.13
2022-12-08T05:23:12.421Z,14.57
2022-12-08T05:25:40.175Z,14.35
2022-12-08T05:28:39.759Z,13.98
2022-12-08T05:30:55.476Z,13.68
2022-12-08T05:33:23.239Z,14.27
2022-12-08T05:35:52.359Z,14.23
2022-12-08T05:38:20.418Z,13.57
2022-12-08T05:40:48.079Z,13.40
2022-12-08T05:43:16.008Z,13.50
2022-12-08T05:45:43.783Z,13.38
2022-12-08T05:48:11.548Z,13.23
2022-12-08T05:50:39.262Z,13.60
2022-12-08T05:53:08.404Z,13.57
2022-12-08T05:55:36.099Z,13.27
2022-12-08T05:58:07.887Z,12.75
2022-12-08T06:00:35.865Z,12.48
2022-12-08T06:03:03.734Z,12.50
2022-12-08T06:05:33.343Z,12.32
2022-12-08T06:08:01.123Z,12.25
2022-12-08T06:10:30.584Z,13.25
2022-12-08T06:12:58.291Z,12.05
2022-12-08T06:15:25.972Z,12.30
2022-12-08T06:17:53.794Z,12.05
2022-12-08T06:20:21.542Z,11.45
2022-12-08T06:22:49.349Z,11.80
2022-12-08T06:25:17.110Z,10.32
2022-12-08T06:27:46.271Z,9.50
2022-12-08T06:30:14.763Z,9.07
2022-12-08T06:32:42.481Z,8.40
2022-12-08T06:35:10.568Z,8.40
2022-12-08T06:37:38.534Z,7.90
2022-12-08T06:40:08.456Z,7.57
2022-12-08T06:42:45.096Z,7.30
2022-12-08T06:45:15.110Z,7.10
2022-12-08T06:47:43.105Z,7.60
2022-12-08T06:50:12.137Z,6.90
2022-12-08T06:52:49.321Z,7.70
2022-12-08T06:55:50.850Z,8.00
2022-12-08T06:58:12.533Z,7.32
2022-12-08T07:00:42.700Z,7.47
2022-12-08T07:03:11.169Z,7.07
2022-12-08T07:05:39.616Z,6.80
2022-12-08T07:08:08.967Z,6.65
2022-12-08T07:10:37.088Z,6.88
2022-12-08T07:13:05.043Z,6.45
2022-12-08T07:15:32.728Z,6.50
2022-12-08T07:18:01.973Z,6.57
2022-12-08T07:20:29.799Z,7.10
2022-12-08T07:22:57.635Z,7.00
2022-12-08T07:25:25.335Z,6.82
2022-12-08T07:27:53.389Z,6.95
2022-12-08T07:30:21.575Z,6.63
2022-12-08T07:32:49.342Z,6.43
2022-12-08T07:35:18.529Z,5.80
2022-12-08T07:37:46.189Z,6.30
2022-12-08T07:40:14.874Z,6.15
2022-12-08T07:42:42.620Z,6.18
2022-12-08T07:45:11.075Z,5.93
2022-12-08T07:47:38.763Z,6.20
2022-12-08T07:50:07.973Z,5.90
2022-12-08T07:52:37.129Z,6.10
2022-12-08T07:55:05.209Z,5.95
2022-12-08T07:57:32.953Z,6.03
2022-12-08T08:00:00.643Z,5.13
2022-12-08T08:02:28.480Z,5.40
2022-12-08T08:04:56.381Z,5.43
2022-12-08T08:07:24.181Z,5.95
2022-12-08T08:09:53.273Z,5.53
2022-12-08T08:12:36.221Z,5.05
2022-12-08T08:15:05.435Z,4.78
2022-12-08T08:17:33.281Z,5.65
2022-12-08T08:20:01.572Z,5.57
2022-12-08T08:22:29.641Z,5.65
2022-12-08T08:24:58.829Z,5.57
2022-12-08T08:27:26.860Z,5.32
2022-12-08T08:29:54.560Z,5.20
2022-12-08T08:32:22.323Z,5.72
2022-12-08T08:34:49.995Z,5.90
2022-12-08T08:37:17.764Z,5.90
2022-12-08T08:39:45.617Z,5.72
2022-12-08T08:42:14.750Z,5.43
2022-12-08T08:44:42.520Z,5.47
2022-12-08T08:47:10.258Z,6.10
2022-12-08T08:49:38.094Z,6.45
2022-12-08T08:52:06.487Z,6.50
2022-12-08T08:54:34.605Z,6.10
2022-12-08T08:57:02.718Z,6.60
2022-12-08T08:59:32.074Z,6.25
2022-12-08T09:01:59.952Z,6.40
2022-12-08T09:04:27.767Z,6.97
2022-12-08T09:06:55.569Z,6.70
2022-12-08T09:09:23.529Z,7.05
2022-12-08T09:11:51.293Z,6.88
2022-12-08T09:14:19.069Z,6.90
2022-12-08T09:16:48.396Z,7.00
2022-12-08T09:19:16.271Z,6.65
2022-12-08T09:21:43.999Z,7.63
2022-12-08T09:24:16.414Z,8.40
2022-12-08T09:26:45.003Z,8.18
2022-12-08T09:29:13.754Z,7.82
2022-12-08T09:31:41.775Z,7.43
2022-12-08T09:34:11.559Z,7.45
2022-12-08T09:36:39.275Z,6.40
2022-12-08T09:39:07.056Z,5.75
2022-12-08T09:43:47.209Z,5.05
2022-12-08T09:46:19.122Z,5.32
2022-12-08T09:48:49.548Z,4.68
2022-12-08T09:51:17.442Z,4.70
2022-12-08T09:53:48.640Z,4.40
2022-12-08T09:56:18.810Z,4.20
2022-12-08T10:00:40.948Z,3.97
2022-12-08T10:03:16.252Z,16.90
2022-12-08T10:05:48.697Z,6.75
2022-12-08T10:08:22.275Z,5.83
2022-12-08T10:10:57.361Z,5.28
2022-12-08T10:13:32.640Z,4.75
2022-12-08T10:16:11.906Z,4.60
2022-12-08T10:18:43.257Z,3.45
2022-12-08T10:21:17.145Z,3.60
2022-12-08T10:23:46.292Z,3.50
2022-12-08T10:26:16.400Z,3.55
2022-12-08T10:28:45.315Z,3.55
2022-12-08T10:31:21.112Z,2.78
2022-12-08T10:33:59.600Z,3.70
2022-12-08T10:36:45.712Z,2.85
2022-12-08T10:39:32.430Z,2.45
2022-12-08T10:42:08.676Z,2.70
2022-12-08T10:44:40.033Z,2.60
2022-12-08T10:47:15.080Z,2.92
2022-12-08T10:49:42.909Z,2.60
2022-12-08T10:52:11.255Z,3.05
2022-12-08T10:54:39.123Z,3.25
2022-12-08T10:57:06.920Z,3.67
2022-12-08T10:59:35.274Z,3.60
2022-12-08T11:02:03.132Z,3.67
2022-12-08T11:04:36.525Z,3.72
2022-12-08T11:07:06.190Z,3.20
2022-12-08T11:09:38.937Z,3.83
2022-12-08T11:12:11.417Z,3.20
2022-12-08T11:14:48.548Z,3.33
2022-12-08T11:17:17.878Z,3.20
2022-12-08T11:19:56.565Z,2.70
2022-12-08T11:22:26.501Z,2.97
2022-12-08T11:25:03.383Z,3.05
2022-12-08T11:27:32.252Z,2.70
2022-12-08T11:30:00.531Z,3.08
2022-12-08T11:32:28.426Z,2.67
2022-12-08T11:35:00.797Z,2.72
2022-12-08T11:37:35.031Z,2.67
2022-12-08T11:40:06.421Z,2.70
2022-12-08T11:42:36.958Z,2.90
2022-12-08T11:45:08.574Z,2.58
2022-12-08T11:47:40.768Z,3.42
2022-12-08T11:50:21.120Z,3.47
2022-12-08T11:52:51.594Z,3.75
2022-12-08T11:55:35.235Z,4.40
2022-12-08T11:58:14.413Z,4.32
2022-12-08T12:00:42.252Z,3.90
2022-12-08T12:03:18.824Z,4.30
2022-12-08T12:08:57.408Z,4.22
2022-12-08T12:11:47.006Z,4.32
2022-12-08T12:14:26.550Z,4.03
2022-12-08T12:17:03.324Z,4.43
2022-12-08T12:19:34.018Z,3.53
2022-12-08T12:22:11.882Z,4.20
2022-12-08T12:24:40.538Z,3.90
2022-12-08T12:27:22.097Z,3.95
2022-12-08T12:29:55.736Z,3.10
2022-12-08T12:32:24.519Z,3.40
2022-12-08T12:34:54.315Z,3.30
2022-12-08T12:37:24.810Z,2.70
2022-12-08T12:39:57.252Z,2.60
2022-12-08T12:42:38.334Z,3.22
2022-12-08T12:45:25.343Z,3.25
2022-12-08T12:47:56.907Z,2.85
2022-12-08T12:50:43.404Z,2.75
2022-12-08T12:53:44.119Z,2.50
2022-12-08T12:56:48.292Z,2.50
2022-12-08T12:59:44.071Z,2.47
2022-12-08T13:02:29.226Z,1.87
2022-12-08T13:05:00.033Z,1.75
2022-12-08T13:07:30.789Z,1.70
2022-12-08T13:10:01.683Z,1.63
2022-12-08T13:12:31.041Z,2.00
2022-12-08T13:15:05.569Z,1.30
2022-12-08T13:17:35.302Z,1.52
2022-12-08T13:20:06.466Z,1.20
2022-12-08T13:22:59.280Z,1.20
2022-12-08T13:25:59.535Z,1.30
2022-12-08T13:28:30.944Z,1.00
2022-12-08T13:31:00.217Z,2.35
2022-12-08T13:33:33.340Z,2.10
2022-12-08T13:36:20.967Z,1.75
2022-12-08T13:38:49.463Z,1.90
2022-12-08T13:41:20.312Z,1.20
2022-12-08T13:44:20.597Z,1.73
2022-12-08T13:58:18.594Z,1.60
2022-12-08T14:00:57.297Z,1.30
2022-12-08T14:03:25.091Z,1.57
2022-12-08T14:09:02.629Z,1.40
2022-12-08T14:11:36.258Z,2.00
2022-12-08T14:14:05.973Z,2.05
2022-12-08T14:16:41.444Z,1.90
2022-12-08T14:19:18.267Z,0.82
2022-12-08T14:22:24.051Z,1.42
2022-12-08T14:24:54.109Z,2.10
2022-12-08T14:27:24.116Z,2.03
2022-12-08T14:29:54.113Z,1.90
2022-12-08T14:32:24.994Z,1.90
2022-12-08T14:34:55.034Z,2.30
2022-12-08T14:37:25.521Z,2.30
2022-12-08T14:39:53.588Z,2.00
2022-12-08T14:42:25.057Z,2.35
2022-12-08T14:45:05.125Z,2.80
2022-12-08T14:47:34.514Z,3.00
2022-12-08T14:50:03.705Z,3.00
2022-12-08T14:52:33.045Z,2.80
2022-12-08T14:55:00.775Z,3.00
2022-12-08T14:57:35.126Z,3.35
2022-12-08T15:00:11.121Z,3.50
2022-12-08T15:02:43.083Z,3.28
2022-12-08T15:05:13.520Z,3.40
2022-12-08T15:07:48.770Z,3.60
2022-12-08T15:10:27.646Z,3.95
2022-12-08T15:13:00.832Z,4.60
2022-12-08T15:15:29.507Z,5.60
2022-12-08T15:18:03.866Z,5.68
2022-12-08T15:20:41.671Z,5.20
2022-12-08T15:23:21.792Z,4.85
2022-12-08T15:25:50.090Z,4.05
2022-12-08T15:28:19.810Z,4.33
2022-12-08T15:30:48.123Z,4.87
2022-12-08T15:33:16.000Z,5.18
2022-12-08T15:35:44.137Z,5.20
2022-12-08T15:38:21.191Z,7.43
2022-12-08T15:40:48.928Z,10.43
2022-12-08T15:43:16.683Z,9.68
2022-12-08T15:45:56.309Z,12.55
2022-12-08T15:48:28.957Z,13.52
2022-12-08T15:50:57.441Z,11.80
2022-12-08T15:53:26.746Z,10.65
2022-12-08T15:58:52.922Z,20.52
2022-12-08T16:01:12.696Z,48.33
2022-12-08T16:04:27.500Z,66.60
2022-12-08T16:09:19.291Z,37.38
2022-12-08T16:12:07.219Z,33.72
2022-12-08T16:17:26.717Z,24.67
2022-12-08T16:19:54.795Z,20.23
2022-12-08T16:25:21.751Z,16.33
2022-12-08T16:28:23.621Z,16.90
2022-12-08T16:30:39.819Z,20.98
2022-12-08T16:33:07.681Z,22.33
2022-12-08T16:35:35.468Z,21.90
2022-12-08T16:38:04.168Z,24.85
2022-12-08T16:40:32.161Z,36.00
2022-12-08T16:42:58.886Z,42.23
2022-12-08T16:45:28.427Z,35.58
2022-12-08T16:47:59.272Z,29.85
2022-12-08T16:50:29.143Z,31.50
2022-12-08T16:52:58.152Z,32.80
2022-12-08T16:55:26.512Z,25.45
2022-12-08T16:57:54.354Z,17.98
2022-12-08T17:00:24.400Z,16.45
2022-12-08T17:02:53.001Z,14.80
2022-12-08T17:05:24.905Z,15.40
2022-12-08T17:07:53.883Z,15.98
2022-12-08T17:10:24.005Z,18.13
2022-12-08T17:12:52.148Z,19.95
2022-12-08T17:15:21.452Z,17.27
2022-12-08T17:17:49.546Z,16.80
2022-12-08T17:20:19.566Z,15.38
2022-12-08T17:22:49.000Z,15.88
2022-12-08T17:25:16.951Z,15.32
2022-12-08T17:27:44.704Z,16.70
2022-12-08T17:30:15.799Z,17.33
2022-12-08T17:32:44.406Z,18.40
2022-12-08T17:35:13.366Z,21.27
2022-12-08T17:37:41.294Z,20.88
2022-12-08T17:40:11.207Z,19.90
2022-12-08T17:42:39.052Z,22.80
2022-12-08T17:45:10.453Z,34.22
2022-12-08T17:47:41.086Z,50.72
2022-12-08T17:50:11.333Z,45.28
2022-12-08T17:52:39.146Z,31.27
2022-12-08T17:55:13.198Z,25.65
2022-12-08T17:57:42.932Z,27.33
2022-12-08T18:00:12.074Z,23.05
2022-12-08T18:02:40.019Z,22.90
2022-12-08T18:05:08.335Z,24.15
2022-12-08T18:07:36.146Z,24.10
2022-12-08T18:10:04.771Z,24.15
2022-12-08T18:12:34.053Z,24.83
2022-12-08T18:15:02.339Z,24.42
2022-12-08T18:17:30.029Z,26.70
2022-12-08T18:19:57.818Z,25.60
2022-12-08T18:22:26.688Z,26.55
2022-12-08T18:24:54.451Z,23.40
2022-12-08T18:27:22.202Z,19.63
2022-12-08T18:29:51.432Z,17.60
2022-12-08T18:32:22.760Z,19.27
2022-12-08T18:34:50.921Z,16.55
2022-12-08T18:37:18.739Z,15.77
2022-12-08T18:39:46.476Z,15.20
2022-12-08T18:42:23.826Z,14.88
2022-12-08T18:44:56.219Z,14.25
2022-12-08T18:47:24.060Z,13.93
2022-12-08T18:49:51.840Z,15.00
2022-12-08T18:52:26.858Z,15.05
2022-12-08T18:55:06.215Z,15.13
2022-12-08T18:57:35.109Z,14.15
2022-12-08T19:00:04.758Z,14.40
2022-12-08T19:02:33.163Z,14.15
2022-12-08T19:05:01.366Z,14.45
2022-12-08T19:07:29.380Z,13.63
2022-12-08T19:09:58.735Z,14.57
2022-12-08T19:12:26.629Z,15.95
2022-12-08T19:14:54.693Z,16.13
2022-12-08T19:17:25.743Z,15.77
2022-12-08T19:19:53.472Z,16.40
2022-12-08T19:22:21.277Z,16.20
2022-12-08T19:24:49.011Z,15.77
2022-12-08T19:27:17.055Z,15.63
2022-12-08T19:29:44.862Z,20.37
2022-12-08T19:32:22.473Z,38.55
2022-12-08T19:34:52.796Z,42.88
2022-12-08T19:37:32.248Z,47.47
2022-12-08T19:40:17.729Z,39.85
2022-12-08T19:43:06.373Z,33.08
2022-12-08T19:45:38.215Z,28.17
2022-12-08T19:48:07.323Z,27.08
2022-12-08T19:50:40.790Z,24.00
2022-12-08T19:53:13.188Z,22.50
2022-12-08T19:55:42.356Z,23.15
2022-12-08T19:58:11.362Z,26.23
2022-12-08T20:00:41.056Z,39.20
2022-12-08T20:03:12.776Z,38.72
2022-12-08T20:05:43.211Z,38.77
2022-12-08T20:08:12.320Z,38.67
2022-12-08T20:10:42.903Z,37.95
2022-12-08T20:13:32.719Z,32.33
2022-12-08T20:16:07.419Z,27.65
2022-12-08T20:18:37.049Z,24.80
2022-12-08T20:21:09.522Z,25.73
2022-12-08T20:23:38.794Z,24.98
2022-12-08T20:26:11.205Z,23.50
2022-12-08T20:28:42.705Z,24.45
2022-12-08T20:31:19.831Z,28.63
2022-12-08T20:33:52.543Z,30.23
2022-12-08T20:36:25.359Z,34.72
2022-12-08T20:39:00.436Z,39.70
2022-12-08T20:41:28.964Z,33.20
2022-12-08T20:44:02.543Z,28.73
2022-12-08T20:49:42.015Z,28.88
2022-12-08T20:52:35.379Z,26.75
2022-12-08T20:55:04.487Z,23.83
2022-12-08T20:57:44.397Z,22.20
2022-12-08T21:00:17.057Z,21.15
2022-12-08T21:03:01.223Z,20.58
2022-12-08T21:05:30.341Z,18.75
2022-12-08T21:08:04.378Z,19.30
2022-12-08T21:10:43.964Z,18.95
2022-12-08T21:13:13.649Z,18.60
2022-12-08T21:15:47.695Z,19.00
2022-12-08T21:18:26.660Z,19.98
2022-12-08T21:21:03.592Z,22.92
2022-12-08T21:23:48.413Z,20.77
2022-12-08T21:26:20.091Z,25.50
2022-12-08T21:29:15.852Z,22.65
2022-12-08T21:32:04.881Z,21.83
2022-12-08T21:34:49.551Z,19.10
2022-12-08T21:37:24.944Z,24.67
2022-12-08T21:40:30.844Z,25.45
2022-12-08T21:43:08.106Z,25.50
2022-12-08T21:45:54.884Z,21.83
2022-12-08T21:48:40.717Z,21.17
2022-12-08T21:51:24.292Z,20.20
2022-12-08T21:54:23.896Z,26.92
2022-12-08T21:57:18.998Z,23.92
2022-12-08T22:00:04.918Z,24.48
2022-12-08T22:02:47.697Z,24.63
2022-12-08T22:05:36.892Z,24.05
2022-12-08T22:08:36.941Z,23.85
2022-12-08T22:14:35.339Z,21.38
2022-12-08T22:17:38.951Z,23.55
2022-12-08T22:20:21.935Z,21.02
2022-12-08T22:22:59.367Z,19.97
2022-12-08T22:25:59.685Z,21.67
2022-12-08T22:28:43.701Z,25.08
2022-12-08T22:31:36.475Z,22.90
2022-12-08T22:34:26.957Z,24.52
2022-12-08T22:36:54.696Z,21.63
2022-12-08T22:39:22.493Z,21.17
2022-12-08T22:41:50.500Z,20.83
2022-12-08T22:44:18.384Z,21.02
2022-12-08T22:46:47.869Z,21.10
2022-12-08T22:49:15.687Z,23.17
2022-12-08T22:51:43.409Z,23.67
2022-12-08T22:54:11.586Z,26.42
2022-12-08T22:56:39.323Z,28.00
2022-12-08T22:59:07.630Z,33.25
2022-12-08T23:01:35.566Z,35.75
2022-12-08T23:04:05.234Z,26.27
2022-12-08T23:06:33.362Z,27.00
2022-12-08T23:09:01.235Z,24.83
2022-12-08T23:11:31.454Z,25.52
2022-12-08T23:14:01.066Z,25.10
2022-12-08T23:16:29.003Z,28.13
2022-12-08T23:18:57.024Z,28.13
2022-12-08T23:21:26.428Z,29.48
2022-12-08T23:23:54.254Z,30.20
2022-12-08T23:26:23.944Z,29.05
2022-12-08T23:28:51.905Z,28.35
2022-12-08T23:31:20.356Z,25.42
2022-12-08T23:33:48.776Z,25.92
2022-12-08T23:36:17.544Z,24.40
2022-12-08T23:38:47.268Z,25.25
2022-12-08T23:41:16.354Z,24.02
2022-12-08T23:43:45.368Z,24.40
2022-12-08T23:46:13.722Z,22.88
2022-12-08T23:48:41.773Z,22.80
2022-12-08T23:51:10.126Z,23.15
2022-12-08T23:53:38.227Z,24.03
2022-12-08T23:56:09.629Z,22.70
2022-12-08T23:58:37.705Z,21.55
